createdAt,value
2018-04-16T00:01:42.284Z,41.70
2018-04-16T00:04:46.096Z,41.70
2018-04-16T00:07:49.881Z,41.70
2018-04-16T00:10:53.686Z,41.70
2018-04-16T00:13:57.497Z,41.70
2018-04-16T00:17:01.284Z,41.80
2018-04-16T00:20:05.093Z,41.80
2018-04-16T00:23:09.623Z,41.80
2018-04-16T00:26:13.829Z,41.70
2018-04-16T00:29:17.628Z,41.70
2018-04-16T00:32:26.802Z,41.70
2018-04-16T00:35:36.010Z,41.70
2018-04-16T00:38:45.254Z,41.60
2018-04-16T00:41:55.116Z,41.60
2018-04-16T00:45:05.086Z,41.70
2018-04-16T00:48:15.072Z,41.80
2018-04-16T00:51:24.379Z,41.60
2018-04-16T00:54:33.642Z,41.60
2018-04-16T00:57:42.885Z,41.70
2018-04-16T01:00:52.155Z,41.70
2018-04-16T01:04:02.081Z,41.80
2018-04-16T01:07:11.369Z,41.60
2018-04-16T01:10:20.514Z,41.70
2018-04-16T01:13:29.669Z,42.10
2018-04-16T01:16:38.775Z,41.70
2018-04-16T01:19:48.055Z,41.30
2018-04-16T01:22:57.307Z,41.70
2018-04-16T01:26:06.558Z,41.70
2018-04-16T01:29:15.813Z,41.70
2018-04-16T01:32:24.964Z,41.70
2018-04-16T01:35:34.230Z,41.70
2018-04-16T01:38:44.117Z,41.70
2018-04-16T01:41:53.458Z,41.70
2018-04-16T01:45:03.513Z,41.80
2018-04-16T01:48:12.682Z,41.70
2018-04-16T01:51:22.701Z,41.80
2018-04-16T01:54:31.789Z,41.70
2018-04-16T01:57:40.934Z,41.80
2018-04-16T02:00:50.070Z,41.80
2018-04-16T02:03:59.337Z,41.80
2018-04-16T02:07:08.606Z,41.70
2018-04-16T02:10:18.500Z,41.70
2018-04-16T02:13:27.819Z,41.60
2018-04-16T02:16:37.940Z,41.70
2018-04-16T02:19:47.241Z,41.60
2018-04-16T02:22:56.390Z,41.60
2018-04-16T02:26:06.377Z,41.70
2018-04-16T02:29:16.298Z,41.60
2018-04-16T02:32:25.461Z,41.60
2018-04-16T02:35:34.728Z,41.60
2018-04-16T02:38:44.730Z,41.70
2018-04-16T02:41:54.080Z,41.60
2018-04-16T02:45:03.198Z,41.60
2018-04-16T02:48:12.463Z,41.60
2018-04-16T02:51:22.427Z,41.60
2018-04-16T02:54:32.380Z,41.60
2018-04-16T02:57:41.650Z,41.60
2018-04-16T03:00:51.633Z,41.70
2018-04-16T03:04:00.893Z,41.60
2018-04-16T03:07:10.257Z,41.70
2018-04-16T03:10:19.579Z,41.80
2018-04-16T03:13:28.838Z,41.80
2018-04-16T03:16:38.804Z,41.80
2018-04-16T03:19:48.677Z,42.00
2018-04-16T03:22:58.609Z,41.80
2018-04-16T03:26:07.890Z,41.80
2018-04-16T03:29:17.852Z,41.80
2018-04-16T03:32:27.139Z,41.80
2018-04-16T03:35:36.244Z,41.80
2018-04-16T03:38:45.539Z,41.80
2018-04-16T03:41:54.832Z,41.80
2018-04-16T03:45:04.140Z,41.80
2018-04-16T03:51:42.962Z,41.60
2018-04-16T03:54:49.092Z,41.60
2018-04-16T03:57:53.653Z,41.60
2018-04-16T04:00:57.444Z,41.60
2018-04-16T04:04:01.986Z,41.60
2018-04-16T04:07:06.581Z,41.60
2018-04-16T04:10:10.392Z,41.60
2018-04-16T04:13:14.196Z,41.60
2018-04-16T04:16:18.000Z,41.60
2018-04-16T04:19:21.803Z,41.60
2018-04-16T04:22:43.441Z,41.60
2018-04-16T04:26:05.251Z,41.60
2018-04-16T04:29:27.040Z,41.60
2018-04-16T04:32:30.821Z,41.60
2018-04-16T04:35:34.621Z,41.70
2018-04-16T04:38:39.176Z,41.80
2018-04-16T04:41:42.957Z,41.70
2018-04-16T04:44:46.778Z,41.80
2018-04-16T04:47:50.578Z,41.80
2018-04-16T04:50:54.389Z,41.80
2018-04-16T04:53:58.211Z,41.80
2018-04-16T04:57:01.977Z,41.80
2018-04-16T05:00:05.777Z,41.90
2018-04-16T05:03:09.559Z,41.90
2018-04-16T05:06:13.364Z,41.90
2018-04-16T05:09:17.911Z,41.80
2018-04-16T05:12:22.644Z,41.80
2018-04-16T05:15:26.470Z,41.70
2018-04-16T05:18:30.244Z,41.80
2018-04-16T05:21:34.056Z,41.80
2018-04-16T05:24:37.869Z,41.70
2018-04-16T05:27:41.643Z,41.70
2018-04-16T05:30:46.215Z,41.70
2018-04-16T05:33:49.999Z,41.60
2018-04-16T05:36:53.812Z,41.70
2018-04-16T05:39:57.622Z,41.70
2018-04-16T05:43:01.431Z,41.70
2018-04-16T05:46:05.244Z,41.60
2018-04-16T05:49:09.029Z,41.70
2018-04-16T05:52:12.823Z,41.80
2018-04-16T05:55:16.626Z,41.70
2018-04-16T05:58:20.442Z,41.70
2018-04-16T06:01:24.284Z,41.80
2018-04-16T06:04:28.077Z,41.80
2018-04-16T06:07:32.623Z,41.90
2018-04-16T06:10:37.167Z,42.00
2018-04-16T06:13:41.693Z,42.00
2018-04-16T06:16:46.262Z,42.00
2018-04-16T06:19:50.037Z,41.90
2018-04-16T06:22:53.841Z,42.00
2018-04-16T06:25:57.642Z,42.00
2018-04-16T06:29:01.417Z,42.00
2018-04-16T06:32:05.238Z,42.00
2018-04-16T06:35:09.028Z,42.00
2018-04-16T06:38:12.834Z,42.60
2018-04-16T06:41:16.706Z,41.90
2018-04-16T06:44:20.505Z,42.00
2018-04-16T06:47:24.316Z,41.90
2018-04-16T06:50:28.124Z,41.90
2018-04-16T06:53:31.916Z,41.90
2018-04-16T06:56:36.493Z,41.80
2018-04-16T06:59:40.275Z,41.80
2018-04-16T07:02:44.827Z,42.50
2018-04-16T07:05:49.397Z,41.90
2018-04-16T07:08:53.245Z,41.80
2018-04-16T07:11:57.058Z,41.80
2018-04-16T07:15:00.843Z,41.80
2018-04-16T07:18:05.406Z,41.80
2018-04-16T07:21:09.210Z,41.80
2018-04-16T07:24:13.802Z,41.80
2018-04-16T07:27:17.633Z,41.80
2018-04-16T07:30:21.409Z,41.90
2018-04-16T07:33:25.213Z,41.80
2018-04-16T07:36:29.017Z,42.00
2018-04-16T07:39:32.800Z,42.10
2018-04-16T07:42:36.614Z,42.00
2018-04-16T07:45:40.448Z,42.10
2018-04-16T07:48:44.277Z,42.10
2018-04-16T07:51:48.100Z,42.10
2018-04-16T07:54:51.877Z,42.10
2018-04-16T07:57:55.678Z,42.10
2018-04-16T08:00:59.456Z,42.10
2018-04-16T08:04:03.257Z,42.20
2018-04-16T08:07:07.805Z,42.10
2018-04-16T08:10:12.317Z,42.20
2018-04-16T08:13:16.127Z,42.80
2018-04-16T08:16:19.936Z,42.10
2018-04-16T08:19:23.740Z,42.20
2018-04-16T08:22:27.548Z,42.10
2018-04-16T08:25:32.097Z,42.10
2018-04-16T08:28:35.918Z,42.10
2018-04-16T08:31:39.749Z,42.10
2018-04-16T08:34:43.542Z,42.10
2018-04-16T08:37:48.092Z,42.10
2018-04-16T08:40:52.653Z,42.00
2018-04-16T08:43:56.468Z,42.00
2018-04-16T08:47:01.030Z,42.10
2018-04-16T08:50:04.822Z,42.10
2018-04-16T08:53:09.368Z,42.80
2018-04-16T08:56:13.912Z,42.20
2018-04-16T08:59:18.477Z,42.20
2018-04-16T09:02:22.286Z,42.10
2018-04-16T09:05:26.063Z,42.30
2018-04-16T09:08:29.869Z,42.30
2018-04-16T09:11:33.649Z,42.20
2018-04-16T09:14:37.459Z,42.40
2018-04-16T09:17:42.013Z,42.40
2018-04-16T09:20:46.547Z,42.50
2018-04-16T09:23:50.364Z,42.40
2018-04-16T09:26:54.888Z,42.40
2018-04-16T09:29:58.691Z,43.00
2018-04-16T09:33:02.500Z,42.40
2018-04-16T09:36:06.310Z,42.40
2018-04-16T09:39:10.133Z,42.40
2018-04-16T09:42:13.933Z,42.40
2018-04-16T09:45:18.453Z,42.40
2018-04-16T09:48:22.265Z,42.40
2018-04-16T09:51:26.066Z,42.50
2018-04-16T09:54:29.886Z,42.40
2018-04-16T09:57:33.694Z,42.50
2018-04-16T10:00:43.007Z,42.40
2018-04-16T10:03:46.822Z,42.40
2018-04-16T10:06:52.116Z,42.40
2018-04-16T10:09:56.659Z,42.40
2018-04-16T10:13:01.211Z,42.40
2018-04-16T10:16:05.000Z,42.40
2018-04-16T10:19:08.805Z,42.40
2018-04-16T10:22:12.588Z,42.40
2018-04-16T10:25:16.390Z,42.40
2018-04-16T10:28:20.266Z,42.40
2018-04-16T10:31:24.020Z,42.40
2018-04-16T10:34:27.834Z,42.40
2018-04-16T10:37:31.620Z,42.50
2018-04-16T10:40:35.436Z,42.40
2018-04-16T10:43:39.248Z,42.30
2018-04-16T10:46:43.037Z,42.40
2018-04-16T10:49:46.855Z,42.40
2018-04-16T10:52:51.442Z,42.50
2018-04-16T10:55:55.990Z,42.40
2018-04-16T10:58:59.829Z,42.40
2018-04-16T11:02:03.628Z,42.40
2018-04-16T11:05:08.165Z,42.40
2018-04-16T11:08:11.973Z,42.40
2018-04-16T11:11:16.501Z,42.40
2018-04-16T11:14:20.450Z,42.30
2018-04-16T11:17:24.261Z,42.40
2018-04-16T11:20:28.068Z,42.40
2018-04-16T11:23:31.884Z,42.40
2018-04-16T11:26:36.410Z,42.40
2018-04-16T11:29:40.212Z,42.30
2018-04-16T11:32:43.989Z,42.40
2018-04-16T11:35:47.822Z,42.40
2018-04-16T11:38:51.637Z,42.40
2018-04-16T11:41:55.482Z,42.40
2018-04-16T11:44:59.294Z,42.20
2018-04-16T11:48:03.066Z,42.10
2018-04-16T11:51:06.878Z,41.90
2018-04-16T11:54:10.671Z,42.00
2018-04-16T11:57:14.456Z,41.80
2018-04-16T12:00:18.271Z,41.90
2018-04-16T12:03:22.050Z,41.90
2018-04-16T12:06:25.854Z,41.90
2018-04-16T12:09:29.734Z,41.90
2018-04-16T12:12:34.320Z,41.90
2018-04-16T12:15:38.856Z,42.10
2018-04-16T12:18:43.408Z,42.10
2018-04-16T12:21:47.947Z,42.10
2018-04-16T12:24:51.761Z,42.10
2018-04-16T12:27:56.276Z,42.20
2018-04-16T12:31:00.973Z,42.10
2018-04-16T12:34:05.582Z,41.80
2018-04-16T12:37:10.098Z,42.40
2018-04-16T12:40:13.901Z,42.30
2018-04-16T12:43:17.682Z,42.30
2018-04-16T12:46:22.257Z,42.10
2018-04-16T12:49:26.060Z,42.10
2018-04-16T12:52:29.854Z,42.20
2018-04-16T12:55:34.402Z,42.70
2018-04-16T12:58:38.933Z,42.40
2018-04-16T13:01:42.730Z,42.30
2018-04-16T13:04:46.548Z,42.40
2018-04-16T13:07:50.381Z,42.40
2018-04-16T13:10:54.164Z,42.40
2018-04-16T13:13:57.949Z,42.30
2018-04-16T13:17:01.753Z,42.30
2018-04-16T13:20:05.579Z,42.40
2018-04-16T13:23:09.374Z,42.40
2018-04-16T13:26:13.179Z,42.20
2018-04-16T13:29:16.963Z,42.30
2018-04-16T13:32:20.799Z,42.20
2018-04-16T13:35:24.642Z,42.20
2018-04-16T13:38:29.188Z,42.20
2018-04-16T13:41:33.732Z,42.10
2018-04-16T13:44:38.291Z,42.10
2018-04-16T13:47:42.064Z,42.00
2018-04-16T13:50:46.630Z,42.10
2018-04-16T13:53:51.155Z,42.10
2018-04-16T13:56:55.001Z,42.10
2018-04-16T13:59:59.563Z,42.20
2018-04-16T14:03:03.371Z,42.10
2018-04-16T14:06:07.172Z,42.30
2018-04-16T14:09:10.953Z,42.30
2018-04-16T14:12:14.758Z,42.20
2018-04-16T14:15:18.570Z,42.20
2018-04-16T14:18:22.381Z,42.30
2018-04-16T14:21:26.225Z,42.30
2018-04-16T14:24:30.048Z,42.40
2018-04-16T14:27:33.864Z,42.40
2018-04-16T14:30:37.660Z,43.10
2018-04-16T14:33:41.448Z,42.50
2018-04-16T14:36:45.251Z,42.90
2018-04-16T14:39:49.316Z,42.50
2018-04-16T14:42:53.108Z,42.60
2018-04-16T14:45:57.661Z,42.70
2018-04-16T14:49:01.437Z,42.60
2018-04-16T14:52:05.262Z,42.80
2018-04-16T14:55:09.049Z,42.80
2018-04-16T14:58:12.848Z,43.50
2018-04-16T15:01:16.665Z,42.90
2018-04-16T15:04:20.461Z,42.90
2018-04-16T15:07:24.282Z,42.90
2018-04-16T15:10:28.096Z,42.90
2018-04-16T15:13:31.870Z,42.90
2018-04-16T15:16:35.706Z,42.90
2018-04-16T15:19:39.502Z,42.90
2018-04-16T15:22:44.176Z,42.80
2018-04-16T15:25:48.036Z,42.80
2018-04-16T15:28:51.818Z,42.80
2018-04-16T15:31:55.637Z,42.90
2018-04-16T15:34:59.408Z,42.90
2018-04-16T15:38:03.220Z,42.80
2018-04-16T15:41:07.022Z,42.80
2018-04-16T15:44:10.816Z,42.80
2018-04-16T15:47:15.362Z,42.90
2018-04-16T15:50:19.908Z,42.90
2018-04-16T15:53:23.730Z,42.80
2018-04-16T15:56:27.545Z,42.80
2018-04-16T15:59:31.389Z,42.90
2018-04-16T16:02:35.200Z,42.90
2018-04-16T16:05:38.971Z,42.90
2018-04-16T16:08:43.530Z,42.90
2018-04-16T16:11:47.340Z,43.50
2018-04-16T16:14:51.158Z,42.90
2018-04-16T16:17:55.700Z,42.90
2018-04-16T16:21:00.578Z,42.90
2018-04-16T16:24:04.536Z,42.90
2018-04-16T16:27:08.328Z,42.90
2018-04-16T16:30:12.142Z,43.00
2018-04-16T16:33:15.945Z,42.90
2018-04-16T16:36:20.496Z,43.00
2018-04-16T16:39:25.014Z,42.90
2018-04-16T16:42:28.820Z,42.90
2018-04-16T16:45:32.623Z,43.00
2018-04-16T16:48:36.500Z,42.90
2018-04-16T16:51:41.047Z,42.90
2018-04-16T16:54:45.561Z,42.90
2018-04-16T16:57:49.453Z,42.90
2018-04-16T17:00:53.245Z,42.90
2018-04-16T17:03:57.069Z,42.90
2018-04-16T17:07:00.924Z,42.90
2018-04-16T17:10:04.775Z,42.90
2018-04-16T17:13:08.637Z,42.90
2018-04-16T17:16:13.150Z,42.90
2018-04-16T17:19:17.729Z,42.90
2018-04-16T17:22:22.265Z,42.90
2018-04-16T17:25:26.780Z,42.80
2018-04-16T17:28:30.608Z,42.80
2018-04-16T17:31:34.754Z,42.90
2018-04-16T17:34:39.512Z,42.90
2018-04-16T17:37:44.237Z,43.10
2018-04-16T17:40:48.014Z,42.90
2018-04-16T17:43:51.909Z,43.00
2018-04-16T17:46:55.732Z,42.80
2018-04-16T17:50:00.305Z,42.90
2018-04-16T17:53:04.377Z,42.90
2018-04-16T17:56:08.167Z,42.90
2018-04-16T17:59:11.982Z,43.00
2018-04-16T18:02:15.784Z,42.90
2018-04-16T18:05:19.562Z,42.90
2018-04-16T18:08:23.361Z,43.00
2018-04-16T18:11:27.147Z,42.90
2018-04-16T18:14:31.264Z,43.00
2018-04-16T18:17:35.822Z,43.00
2018-04-16T18:20:39.683Z,42.90
2018-04-16T18:23:43.480Z,42.90
2018-04-16T18:26:47.306Z,42.90
2018-04-16T18:29:51.296Z,42.90
2018-04-16T18:32:55.173Z,42.90
2018-04-16T18:35:58.994Z,42.90
2018-04-16T18:39:02.945Z,42.90
2018-04-16T18:42:07.130Z,42.90
2018-04-16T18:45:10.985Z,42.90
2018-04-16T18:48:14.777Z,43.00
2018-04-16T18:51:19.361Z,42.90
2018-04-16T18:54:23.247Z,42.90
2018-04-16T18:57:27.790Z,43.00
2018-04-16T19:00:31.598Z,42.90
2018-04-16T19:03:36.402Z,43.00
2018-04-16T19:06:40.526Z,42.90
2018-04-16T19:09:44.343Z,42.90
2018-04-16T19:12:48.172Z,42.90
2018-04-16T19:15:51.948Z,42.90
2018-04-16T19:18:56.517Z,43.50
2018-04-16T19:22:00.510Z,42.90
2018-04-16T19:25:04.523Z,42.90
2018-04-16T19:28:13.818Z,43.00
2018-04-16T19:31:17.646Z,43.00
2018-04-16T19:34:26.801Z,42.90
2018-04-16T19:37:30.597Z,43.00
2018-04-16T19:40:34.405Z,42.90
2018-04-16T19:43:38.395Z,43.00
2018-04-16T19:46:42.175Z,42.90
2018-04-16T19:49:52.261Z,42.90
2018-04-16T19:52:56.071Z,42.90
2018-04-16T19:56:06.100Z,43.00
2018-04-16T19:59:10.212Z,42.90
2018-04-16T20:02:19.397Z,42.90
2018-04-16T20:05:23.328Z,42.90
2018-04-16T20:08:27.257Z,43.00
2018-04-16T20:11:31.085Z,42.90
2018-04-16T20:14:35.756Z,42.90
2018-04-16T20:17:40.400Z,42.90
2018-04-16T20:20:44.956Z,42.90
2018-04-16T20:23:48.866Z,42.80
2018-04-16T20:26:53.393Z,42.90
2018-04-16T20:29:57.962Z,43.40
2018-04-16T20:33:01.867Z,42.80
2018-04-16T20:36:05.777Z,42.80
2018-04-16T20:39:10.438Z,42.90
2018-04-16T20:42:14.996Z,42.90
2018-04-16T20:45:18.852Z,42.90
2018-04-16T20:48:22.647Z,42.90
2018-04-16T20:51:27.195Z,42.90
2018-04-16T20:54:32.618Z,42.90
2018-04-16T20:57:37.256Z,42.90
2018-04-16T21:00:41.108Z,42.80
2018-04-16T21:03:45.680Z,42.90
2018-04-16T21:06:49.511Z,42.90
2018-04-16T21:09:53.344Z,42.90
2018-04-16T21:12:57.153Z,42.90
2018-04-16T21:16:01.051Z,42.90
2018-04-16T21:19:05.724Z,42.90
2018-04-16T21:22:09.626Z,42.80
2018-04-16T21:25:13.603Z,42.90
2018-04-16T21:28:17.404Z,42.90
2018-04-16T21:31:21.262Z,42.90
2018-04-16T21:34:25.079Z,42.90
2018-04-16T21:37:29.695Z,42.90
2018-04-16T21:40:33.911Z,42.80
2018-04-16T21:43:37.763Z,42.90
2018-04-16T21:46:41.713Z,42.90
2018-04-16T21:49:45.552Z,42.90
2018-04-16T21:52:49.366Z,42.90
2018-04-16T21:55:53.208Z,43.50
2018-04-16T21:58:57.023Z,42.80
2018-04-16T22:02:00.886Z,42.80
2018-04-16T22:05:04.757Z,42.80
2018-04-16T22:08:08.652Z,42.80
2018-04-16T22:11:12.580Z,42.80
2018-04-16T22:14:16.417Z,42.80
2018-04-16T22:17:20.238Z,42.80
2018-04-16T22:20:24.055Z,42.80
2018-04-16T22:23:27.865Z,42.80
2018-04-16T22:26:31.754Z,42.80
2018-04-16T22:29:36.348Z,42.90
2018-04-16T22:32:40.150Z,42.80
2018-04-16T22:35:43.962Z,42.90
2018-04-16T22:38:48.476Z,42.90
2018-04-16T22:41:52.288Z,42.80
2018-04-16T22:44:56.168Z,42.90
2018-04-16T22:48:00.053Z,42.90
2018-04-16T22:51:04.010Z,42.90
2018-04-16T22:54:08.572Z,42.90
2018-04-16T22:57:12.374Z,42.90
2018-04-16T23:00:16.910Z,42.90
2018-04-16T23:03:21.430Z,42.90
2018-04-16T23:06:26.732Z,42.90
2018-04-16T23:09:30.645Z,42.70
2018-04-16T23:12:35.221Z,42.90
2018-04-16T23:15:39.117Z,42.70
2018-04-16T23:18:42.893Z,42.80
2018-04-16T23:21:46.695Z,42.80
2018-04-16T23:24:50.474Z,42.80
2018-04-16T23:27:55.029Z,42.80
2018-04-16T23:30:58.828Z,42.80
2018-04-16T23:34:02.893Z,42.80
2018-04-16T23:37:06.736Z,43.10
2018-04-16T23:40:10.569Z,42.80
2018-04-16T23:43:14.358Z,42.90
2018-04-16T23:46:18.182Z,42.80
2018-04-16T23:49:21.958Z,42.80
2018-04-16T23:52:25.756Z,42.80
2018-04-16T23:55:29.648Z,42.80
2018-04-16T23:58:34.175Z,42.90
